createdAt,value
2018-12-17T00:02:09.462Z,42.08
2018-12-17T00:04:36.118Z,39.30
2018-12-17T00:07:02.782Z,39.25
2018-12-17T00:09:29.483Z,38.88
2018-12-17T00:11:56.151Z,40.92
2018-12-17T00:14:22.810Z,40.60
2018-12-17T00:16:49.502Z,39.67
2018-12-17T00:19:16.171Z,40.15
2018-12-17T00:21:42.835Z,41.95
2018-12-17T00:24:09.522Z,42.45
2018-12-17T00:26:36.181Z,40.40
2018-12-17T00:29:02.837Z,43.23
2018-12-17T00:31:29.522Z,44.53
2018-12-17T00:33:56.175Z,40.65
2018-12-17T00:36:22.863Z,42.17
2018-12-17T00:38:49.524Z,41.88
2018-12-17T00:41:16.229Z,43.25
2018-12-17T00:43:42.899Z,40.55
2018-12-17T00:46:09.669Z,41.53
2018-12-17T00:48:36.359Z,41.65
2018-12-17T00:51:03.046Z,39.63
2018-12-17T00:53:29.717Z,43.10
2018-12-17T00:55:56.397Z,40.48
2018-12-17T00:58:23.049Z,41.40
2018-12-17T01:00:49.715Z,41.40
2018-12-17T01:03:16.405Z,41.37
2018-12-17T01:05:43.065Z,42.45
2018-12-17T01:08:09.801Z,40.17
2018-12-17T01:10:36.502Z,42.98
2018-12-17T01:13:03.295Z,43.60
2018-12-17T01:15:29.957Z,41.92
2018-12-17T01:17:56.651Z,41.98
2018-12-17T01:20:23.300Z,40.28
2018-12-17T01:22:49.990Z,42.40
2018-12-17T01:25:16.644Z,40.92
2018-12-17T01:27:43.341Z,42.25
2018-12-17T01:30:10.055Z,43.30
2018-12-17T01:32:36.721Z,41.77
2018-12-17T01:35:03.881Z,39.18
2018-12-17T01:37:30.558Z,40.05
2018-12-17T01:39:57.226Z,41.83
2018-12-17T01:42:23.914Z,41.92
2018-12-17T01:44:50.584Z,40.67
2018-12-17T01:47:17.278Z,43.80
2018-12-17T01:49:43.938Z,42.38
2018-12-17T01:52:10.592Z,42.53
2018-12-17T01:54:37.289Z,45.15
2018-12-17T01:57:03.960Z,42.88
2018-12-17T01:59:30.632Z,42.38
2018-12-17T02:01:57.488Z,44.00
2018-12-17T02:04:24.156Z,42.98
2018-12-17T02:06:50.828Z,43.65
2018-12-17T02:09:17.508Z,43.80
2018-12-17T02:11:44.199Z,43.48
2018-12-17T02:14:10.864Z,42.10
2018-12-17T02:16:37.526Z,44.67
2018-12-17T02:19:04.205Z,44.25
2018-12-17T02:21:30.878Z,44.80
2018-12-17T02:23:57.642Z,47.93
2018-12-17T02:26:24.326Z,43.73
2018-12-17T02:28:51.014Z,43.10
2018-12-17T02:31:17.782Z,41.35
2018-12-17T02:33:44.436Z,40.15
2018-12-17T02:36:11.103Z,41.75
2018-12-17T02:38:37.793Z,41.02
2018-12-17T02:41:04.478Z,44.00
2018-12-17T02:43:31.161Z,40.55
2018-12-17T02:45:57.834Z,41.95
2018-12-17T02:48:24.527Z,43.00
2018-12-17T02:50:51.183Z,40.45
2018-12-17T02:53:17.856Z,45.08
2018-12-17T02:55:44.544Z,47.73
2018-12-17T02:58:11.283Z,43.40
2018-12-17T03:00:37.956Z,42.75
2018-12-17T03:03:04.663Z,45.33
2018-12-17T03:05:31.327Z,43.55
2018-12-17T03:07:58.005Z,43.58
2018-12-17T03:10:24.677Z,43.23
2018-12-17T03:12:51.419Z,44.95
2018-12-17T03:15:18.158Z,44.45
2018-12-17T03:17:44.826Z,44.13
2018-12-17T03:20:11.537Z,42.85
2018-12-17T03:22:38.197Z,45.43
2018-12-17T03:25:04.858Z,44.45
2018-12-17T03:27:31.539Z,42.43
2018-12-17T03:29:58.224Z,42.53
2018-12-17T03:32:24.896Z,46.77
2018-12-17T03:34:51.563Z,41.85
2018-12-17T03:37:18.253Z,42.03
2018-12-17T03:39:44.947Z,43.83
2018-12-17T03:42:11.628Z,43.55
2018-12-17T03:44:38.322Z,42.25
2018-12-17T03:47:05.002Z,42.93
2018-12-17T03:49:31.656Z,44.58
2018-12-17T03:51:58.366Z,41.80
2018-12-17T03:54:25.027Z,43.08
2018-12-17T03:56:51.708Z,44.38
2018-12-17T03:59:18.402Z,41.33
2018-12-17T04:01:45.061Z,43.25
2018-12-17T04:04:11.732Z,41.23
2018-12-17T04:06:38.423Z,39.83
2018-12-17T04:09:05.627Z,44.83
2018-12-17T04:11:32.327Z,42.90
2018-12-17T04:13:58.990Z,44.18
2018-12-17T04:16:25.654Z,44.45
2018-12-17T04:18:52.343Z,42.05
2018-12-17T04:21:19.010Z,41.63
2018-12-17T04:23:45.680Z,42.10
2018-12-17T04:26:12.356Z,43.40
2018-12-17T04:28:39.037Z,42.43
2018-12-17T04:31:05.708Z,41.48
2018-12-17T04:33:32.378Z,42.33
2018-12-17T04:35:59.053Z,43.98
2018-12-17T04:38:25.714Z,43.15
2018-12-17T04:40:52.395Z,42.90
2018-12-17T04:43:19.100Z,43.05
2018-12-17T04:45:45.782Z,43.55
2018-12-17T04:48:12.449Z,46.42
2018-12-17T04:50:39.100Z,47.20
2018-12-17T04:53:05.789Z,45.92
2018-12-17T04:55:32.453Z,45.65
2018-12-17T04:57:59.299Z,44.60
2018-12-17T05:00:25.990Z,46.00
2018-12-17T05:02:52.668Z,42.85
2018-12-17T05:05:19.347Z,45.17
2018-12-17T05:07:46.112Z,45.30
2018-12-17T05:10:12.781Z,45.78
2018-12-17T05:12:39.543Z,45.30
2018-12-17T05:15:06.211Z,44.30
2018-12-17T05:17:32.920Z,45.55
2018-12-17T05:19:59.661Z,42.67
2018-12-17T05:22:26.324Z,46.15
2018-12-17T05:24:53.052Z,43.10
2018-12-17T05:27:19.782Z,44.63
2018-12-17T05:29:46.520Z,43.63
2018-12-17T05:32:13.267Z,44.45
2018-12-17T05:34:40.000Z,47.20
2018-12-17T05:37:06.747Z,46.25
2018-12-17T05:39:33.481Z,47.62
2018-12-17T05:42:00.169Z,44.50
2018-12-17T05:44:26.845Z,44.08
2018-12-17T05:46:53.507Z,46.18
2018-12-17T05:49:20.218Z,46.35
2018-12-17T05:51:46.980Z,42.17
2018-12-17T05:54:13.659Z,43.48
2018-12-17T05:56:40.327Z,44.93
2018-12-17T05:59:07.009Z,45.80
2018-12-17T06:01:33.666Z,46.92
2018-12-17T06:04:00.328Z,44.85
2018-12-17T06:06:27.008Z,46.60
2018-12-17T06:08:53.704Z,46.92
2018-12-17T06:11:20.362Z,43.42
2018-12-17T06:13:47.129Z,46.63
2018-12-17T06:16:13.794Z,44.70
2018-12-17T06:18:40.742Z,44.73
2018-12-17T06:21:07.490Z,45.17
2018-12-17T06:23:34.169Z,45.73
2018-12-17T06:26:00.838Z,45.08
2018-12-17T06:28:27.529Z,41.92
2018-12-17T06:30:54.186Z,41.50
2018-12-17T06:33:22.713Z,44.45
2018-12-17T06:35:55.240Z,45.20
2018-12-17T06:38:22.313Z,44.42
2018-12-17T06:40:48.998Z,43.33
2018-12-17T06:43:15.668Z,43.90
2018-12-17T06:45:42.330Z,41.37
2018-12-17T06:48:09.008Z,44.55
2018-12-17T06:50:35.675Z,45.52
2018-12-17T06:53:02.448Z,43.50
2018-12-17T06:55:29.114Z,46.40
2018-12-17T06:57:55.869Z,41.42
2018-12-17T07:00:22.567Z,43.40
2018-12-17T07:02:49.235Z,44.55
2018-12-17T07:05:15.941Z,46.05
2018-12-17T07:07:42.685Z,43.28
2018-12-17T07:10:09.406Z,44.60
2018-12-17T07:12:36.167Z,42.40
2018-12-17T07:15:03.105Z,45.12
2018-12-17T07:17:29.802Z,43.40
2018-12-17T07:19:56.470Z,44.70
2018-12-17T07:22:23.229Z,48.50
2018-12-17T07:24:49.901Z,44.55
2018-12-17T07:27:16.592Z,43.50
2018-12-17T07:29:49.583Z,41.35
2018-12-17T07:32:11.933Z,42.70
2018-12-17T07:34:38.900Z,45.12
2018-12-17T07:37:05.565Z,43.58
2018-12-17T07:39:32.939Z,44.53
2018-12-17T07:41:59.815Z,44.90
2018-12-17T07:44:26.470Z,41.85
2018-12-17T07:46:53.155Z,43.28
2018-12-17T07:49:19.911Z,42.43
2018-12-17T07:51:46.679Z,40.08
2018-12-17T07:54:13.350Z,42.17
2018-12-17T07:56:40.022Z,43.45
2018-12-17T07:59:06.793Z,46.10
2018-12-17T08:01:33.471Z,43.23
2018-12-17T08:04:00.275Z,43.40
2018-12-17T08:06:27.016Z,42.40
2018-12-17T08:08:53.757Z,42.55
2018-12-17T08:11:20.495Z,42.73
2018-12-17T08:13:47.236Z,42.33
2018-12-17T08:16:13.975Z,44.08
2018-12-17T08:18:40.715Z,43.87
2018-12-17T08:21:07.457Z,44.67
2018-12-17T08:23:34.297Z,44.48
2018-12-17T08:26:01.049Z,50.50
2018-12-17T08:28:27.714Z,46.75
2018-12-17T08:30:54.419Z,45.85
2018-12-17T08:33:21.101Z,46.05
2018-12-17T08:35:47.801Z,44.93
2018-12-17T08:38:14.537Z,45.20
2018-12-17T08:40:41.206Z,46.05
2018-12-17T08:43:07.889Z,47.85
2018-12-17T08:45:34.544Z,45.95
2018-12-17T08:48:01.217Z,44.48
2018-12-17T08:50:27.895Z,44.27
2018-12-17T08:52:54.675Z,40.15
2018-12-17T08:55:21.362Z,46.02
2018-12-17T08:57:48.026Z,46.75
2018-12-17T09:00:14.788Z,43.78
2018-12-17T09:02:41.457Z,44.13
2018-12-17T09:05:08.129Z,43.02
2018-12-17T09:09:24.340Z,44.75
2018-12-17T09:11:51.039Z,36.28
2018-12-17T09:14:17.713Z,37.75
2018-12-17T09:16:44.481Z,33.95
2018-12-17T09:19:11.183Z,31.27
2018-12-17T09:21:37.853Z,39.92
2018-12-17T09:24:04.525Z,43.70
2018-12-17T09:26:31.232Z,45.88
2018-12-17T09:28:57.922Z,41.48
2018-12-17T09:31:24.626Z,44.80
2018-12-17T09:33:51.308Z,44.42
2018-12-17T09:36:18.011Z,41.10
2018-12-17T09:38:44.680Z,30.37
2018-12-17T09:41:11.482Z,40.92
2018-12-17T09:43:38.177Z,48.60
2018-12-17T09:46:04.857Z,46.80
2018-12-17T09:48:31.561Z,44.55
2018-12-17T09:50:58.751Z,43.58
2018-12-17T09:53:25.433Z,44.73
2018-12-17T09:55:52.127Z,42.85
2018-12-17T09:58:18.793Z,44.10
2018-12-17T10:00:45.474Z,37.90
2018-12-17T10:03:12.191Z,42.80
2018-12-17T10:05:38.862Z,44.75
2018-12-17T10:08:05.540Z,46.85
2018-12-17T10:10:32.259Z,36.63
2018-12-17T10:12:58.938Z,41.63
2018-12-17T10:15:25.617Z,32.83
2018-12-17T10:17:52.314Z,32.33
2018-12-17T10:20:19.001Z,31.42
2018-12-17T10:22:45.701Z,31.82
2018-12-17T10:25:12.446Z,29.90
2018-12-17T10:27:39.185Z,29.80
2018-12-17T10:30:05.882Z,30.60
2018-12-17T10:32:32.556Z,32.00
2018-12-17T10:34:59.273Z,30.80
2018-12-17T10:37:25.955Z,31.87
2018-12-17T10:39:52.648Z,33.88
2018-12-17T10:42:19.352Z,32.90
2018-12-17T10:44:46.027Z,29.95
2018-12-17T10:47:12.702Z,27.50
2018-12-17T10:49:39.419Z,28.35
2018-12-17T10:52:06.085Z,31.87
2018-12-17T10:54:32.759Z,30.85
2018-12-17T10:56:59.456Z,31.02
2018-12-17T10:59:26.126Z,28.67
2018-12-17T11:02:09.703Z,37.33
2018-12-17T11:04:38.367Z,35.28
2018-12-17T11:07:05.116Z,34.25
2018-12-17T11:09:31.810Z,25.35
2018-12-17T11:11:58.496Z,33.58
2018-12-17T11:14:25.175Z,34.98
2018-12-17T11:16:52.088Z,33.28
2018-12-17T11:19:18.776Z,34.05
2018-12-17T11:21:45.469Z,36.42
2018-12-17T11:24:12.151Z,30.70
2018-12-17T11:26:38.837Z,32.00
2018-12-17T11:29:05.543Z,32.90
2018-12-17T11:31:32.217Z,32.42
2018-12-17T11:33:58.891Z,31.50
2018-12-17T11:36:25.615Z,29.37
2018-12-17T11:38:52.310Z,31.75
2018-12-17T11:41:19.070Z,31.90
2018-12-17T11:43:45.765Z,32.40
2018-12-17T11:46:12.438Z,34.92
2018-12-17T11:48:39.693Z,32.40
2018-12-17T11:51:06.436Z,33.18
2018-12-17T11:53:33.121Z,29.90
2018-12-17T11:55:59.801Z,30.80
2018-12-17T11:58:26.493Z,31.45
2018-12-17T12:00:55.143Z,35.45
2018-12-17T12:03:21.816Z,33.55
2018-12-17T12:05:48.618Z,28.92
2018-12-17T12:08:15.289Z,27.50
2018-12-17T12:10:42.001Z,30.52
2018-12-17T12:13:08.669Z,33.45
2018-12-17T12:15:35.341Z,33.20
2018-12-17T12:18:02.039Z,32.28
2018-12-17T12:20:28.717Z,35.38
2018-12-17T12:22:55.395Z,30.40
2018-12-17T12:25:22.076Z,33.15
2018-12-17T12:27:48.776Z,30.65
2018-12-17T12:30:15.455Z,30.70
2018-12-17T12:32:42.126Z,28.50
2018-12-17T12:35:09.902Z,28.30
2018-12-17T12:37:36.581Z,28.32
2018-12-17T12:40:03.754Z,32.03
2018-12-17T12:42:30.439Z,31.55
2018-12-17T12:44:57.133Z,30.45
2018-12-17T12:47:23.809Z,26.30
2018-12-17T12:49:50.482Z,25.37
2018-12-17T12:52:17.177Z,24.40
2018-12-17T12:54:43.854Z,24.80
2018-12-17T12:57:10.537Z,25.68
2018-12-17T12:59:37.237Z,24.47
2018-12-17T13:02:03.909Z,26.42
2018-12-17T13:04:30.602Z,25.20
2018-12-17T13:06:57.286Z,25.20
2018-12-17T13:09:24.073Z,23.55
2018-12-17T13:11:50.739Z,24.90
2018-12-17T13:14:17.414Z,26.45
2018-12-17T13:16:44.189Z,24.95
2018-12-17T13:19:10.863Z,23.30
2018-12-17T13:21:37.528Z,23.07
2018-12-17T13:24:04.226Z,24.82
2018-12-17T13:26:30.919Z,23.02
2018-12-17T13:28:57.681Z,26.02
2018-12-17T13:31:24.348Z,26.57
2018-12-17T13:33:51.048Z,24.43
2018-12-17T13:36:17.728Z,27.65
2018-12-17T13:38:44.437Z,25.23
2018-12-17T13:41:11.114Z,24.15
2018-12-17T13:43:37.816Z,28.50
2018-12-17T13:46:04.501Z,30.62
2018-12-17T13:48:31.194Z,26.73
2018-12-17T13:50:59.869Z,30.27
2018-12-17T13:53:31.707Z,32.63
2018-12-17T13:55:58.382Z,32.80
2018-12-17T13:58:25.099Z,39.55
2018-12-17T14:00:51.786Z,32.03
2018-12-17T14:03:18.465Z,34.10
2018-12-17T14:05:45.162Z,32.55
2018-12-17T14:08:11.833Z,34.58
2018-12-17T14:10:44.261Z,32.75
2018-12-17T14:13:10.930Z,32.85
2018-12-17T14:15:43.538Z,33.33
2018-12-17T14:18:13.118Z,31.65
2018-12-17T14:20:45.761Z,32.78
2018-12-17T14:23:12.449Z,34.38
2018-12-17T14:25:39.131Z,33.25
2018-12-17T14:28:05.848Z,33.30
2018-12-17T14:30:32.521Z,33.20
2018-12-17T14:32:59.201Z,33.55
2018-12-17T14:35:25.906Z,33.05
2018-12-17T14:37:58.229Z,32.88
2018-12-17T14:40:24.923Z,24.60
2018-12-17T14:42:51.600Z,23.65
2018-12-17T14:45:18.282Z,29.00
2018-12-17T14:47:44.977Z,34.08
2018-12-17T14:50:11.650Z,31.45
2018-12-17T14:52:38.353Z,30.92
2018-12-17T14:55:05.415Z,31.82
2018-12-17T14:57:32.080Z,25.48
2018-12-17T14:59:58.778Z,30.40
2018-12-17T15:02:25.450Z,31.12
2018-12-17T15:04:52.166Z,32.38
2018-12-17T15:07:18.838Z,36.10
2018-12-17T15:09:45.645Z,33.67
2018-12-17T15:12:12.346Z,31.77
2018-12-17T15:14:39.018Z,28.92
2018-12-17T15:17:05.718Z,33.35
2018-12-17T15:19:32.397Z,28.32
2018-12-17T15:21:59.066Z,27.13
2018-12-17T15:24:25.761Z,32.50
2018-12-17T15:26:52.462Z,30.35
2018-12-17T15:29:19.138Z,29.37
2018-12-17T15:31:45.831Z,32.93
2018-12-17T15:34:12.522Z,30.40
2018-12-17T15:36:40.652Z,32.90
2018-12-17T15:39:07.517Z,28.98
2018-12-17T15:41:34.189Z,26.82
2018-12-17T15:44:00.885Z,25.37
2018-12-17T15:46:27.569Z,24.98
2018-12-17T15:48:54.262Z,24.65
2018-12-17T15:51:20.945Z,25.12
2018-12-17T15:53:47.638Z,26.25
2018-12-17T15:56:14.333Z,27.77
2018-12-17T15:58:41.010Z,29.20
2018-12-17T16:01:07.711Z,28.85
2018-12-17T16:03:34.394Z,27.50
2018-12-17T16:06:01.101Z,29.87
2018-12-17T16:08:27.775Z,29.65
2018-12-17T16:10:54.453Z,28.00
2018-12-17T16:13:21.188Z,30.15
2018-12-17T16:15:47.853Z,27.42
2018-12-17T16:18:14.615Z,26.10
2018-12-17T16:20:41.322Z,20.08
2018-12-17T16:23:07.983Z,22.32
2018-12-17T16:25:34.684Z,22.93
2018-12-17T16:28:01.352Z,23.62
2018-12-17T16:30:28.026Z,25.45
2018-12-17T16:32:54.734Z,25.77
2018-12-17T16:35:21.409Z,28.10
2018-12-17T16:37:48.107Z,26.55
2018-12-17T16:40:15.057Z,25.08
2018-12-17T16:42:41.778Z,17.98
2018-12-17T16:45:08.554Z,23.80
2018-12-17T16:47:35.225Z,27.20
2018-12-17T16:50:01.921Z,25.50
2018-12-17T16:52:28.604Z,26.80
2018-12-17T16:54:55.279Z,25.85
2018-12-17T16:57:21.979Z,26.40
2018-12-17T16:59:48.658Z,23.35
2018-12-17T17:02:15.322Z,20.02
2018-12-17T17:04:42.018Z,21.23
2018-12-17T17:07:08.680Z,21.55
2018-12-17T17:09:35.376Z,20.45
2018-12-17T17:12:02.058Z,23.30
2018-12-17T17:14:28.724Z,17.95
2018-12-17T17:16:55.497Z,21.85
2018-12-17T17:19:22.187Z,19.57
2018-12-17T17:21:49.041Z,19.45
2018-12-17T17:24:15.749Z,19.70
2018-12-17T17:26:42.422Z,20.88
2018-12-17T17:29:09.110Z,22.65
2018-12-17T17:31:35.805Z,18.67
2018-12-17T17:34:02.479Z,21.80
2018-12-17T17:36:29.186Z,19.60
2018-12-17T17:38:55.861Z,17.75
2018-12-17T17:41:22.543Z,20.52
2018-12-17T17:43:49.252Z,20.62
2018-12-17T17:46:15.931Z,19.73
2018-12-17T17:48:42.610Z,21.70
2018-12-17T17:51:09.306Z,19.90
2018-12-17T17:53:35.983Z,22.40
2018-12-17T17:56:02.672Z,21.75
2018-12-17T17:58:29.517Z,21.30
2018-12-17T18:00:56.230Z,20.00
2018-12-17T18:03:22.907Z,22.85
2018-12-17T18:05:49.585Z,22.32
2018-12-17T18:08:16.248Z,20.52
2018-12-17T18:10:42.909Z,21.93
2018-12-17T18:13:09.594Z,22.05
2018-12-17T18:15:36.304Z,21.23
2018-12-17T18:18:02.984Z,22.95
2018-12-17T18:20:29.644Z,20.02
2018-12-17T18:22:56.302Z,22.30
2018-12-17T18:25:22.981Z,21.15
2018-12-17T18:27:49.637Z,21.37
2018-12-17T18:30:16.297Z,23.77
2018-12-17T18:32:43.076Z,22.32
2018-12-17T18:35:09.746Z,22.37
2018-12-17T18:37:36.417Z,23.55
2018-12-17T18:40:03.371Z,26.25
2018-12-17T18:42:30.033Z,23.27
2018-12-17T18:44:56.777Z,22.32
2018-12-17T18:47:25.926Z,21.55
2018-12-17T18:49:52.167Z,23.02
2018-12-17T18:52:18.945Z,22.70
2018-12-17T18:54:45.610Z,23.35
2018-12-17T18:57:12.323Z,21.42
2018-12-17T18:59:39.023Z,20.30
2018-12-17T19:02:05.803Z,24.10
2018-12-17T19:04:32.471Z,24.20
2018-12-17T19:06:59.162Z,22.82
2018-12-17T19:09:25.843Z,23.32
2018-12-17T19:11:52.507Z,21.27
2018-12-17T19:14:19.194Z,22.25
2018-12-17T19:16:45.906Z,21.00
2018-12-17T19:19:12.641Z,20.82
2018-12-17T19:21:39.330Z,20.20
2018-12-17T19:24:05.986Z,21.60
2018-12-17T19:26:32.668Z,20.62
2018-12-17T19:28:59.362Z,22.05
2018-12-17T19:31:26.029Z,22.70
2018-12-17T19:33:52.691Z,20.90
2018-12-17T19:36:19.377Z,20.95
2018-12-17T19:38:46.036Z,19.42
2018-12-17T19:41:12.693Z,22.25
2018-12-17T19:43:39.382Z,23.75
2018-12-17T19:46:06.054Z,25.20
2018-12-17T19:48:32.718Z,21.75
2018-12-17T19:50:59.413Z,21.42
2018-12-17T19:53:26.114Z,22.42
2018-12-17T19:55:52.772Z,23.10
2018-12-17T19:58:19.484Z,25.00
2018-12-17T20:00:46.151Z,24.45
2018-12-17T20:03:12.816Z,22.52
2018-12-17T20:05:39.521Z,21.65
2018-12-17T20:08:06.194Z,23.10
2018-12-17T20:10:32.883Z,23.50
2018-12-17T20:12:59.545Z,23.70
2018-12-17T20:15:26.234Z,26.95
2018-12-17T20:17:52.901Z,24.95
2018-12-17T20:20:19.594Z,22.13
2018-12-17T20:22:46.261Z,22.82
2018-12-17T20:25:12.913Z,25.90
2018-12-17T20:27:39.659Z,24.00
2018-12-17T20:30:07.209Z,23.80
2018-12-17T20:32:33.919Z,23.42
2018-12-17T20:35:00.670Z,23.30
2018-12-17T20:37:27.356Z,25.20
2018-12-17T20:39:54.027Z,26.02
2018-12-17T20:42:20.688Z,27.25
2018-12-17T20:44:47.386Z,20.82
2018-12-17T20:47:14.048Z,24.67
2018-12-17T20:49:40.742Z,24.65
2018-12-17T20:52:07.416Z,25.45
2018-12-17T20:54:34.105Z,27.35
2018-12-17T20:57:00.791Z,28.00
2018-12-17T20:59:27.460Z,29.90
2018-12-17T21:01:54.141Z,27.93
2018-12-17T21:04:20.827Z,28.80
2018-12-17T21:06:50.062Z,28.23
2018-12-17T21:09:16.391Z,24.77
2018-12-17T21:11:43.339Z,25.23
2018-12-17T21:14:10.026Z,26.65
2018-12-17T21:16:36.750Z,27.75
2018-12-17T21:19:03.449Z,26.62
2018-12-17T21:21:30.110Z,26.77
2018-12-17T21:23:56.797Z,29.70
2018-12-17T21:26:23.489Z,25.62
2018-12-17T21:28:50.210Z,26.87
2018-12-17T21:31:16.865Z,27.90
2018-12-17T21:33:43.544Z,27.13
2018-12-17T21:36:10.210Z,26.35
2018-12-17T21:38:36.900Z,26.97
2018-12-17T21:41:03.578Z,26.97
2018-12-17T21:43:35.886Z,27.95
2018-12-17T21:45:58.997Z,28.47
2018-12-17T21:48:25.661Z,29.42
2018-12-17T21:50:52.351Z,29.50
2018-12-17T21:53:19.009Z,30.15
2018-12-17T21:55:45.671Z,27.67
2018-12-17T21:58:12.357Z,27.77
2018-12-17T22:00:39.016Z,27.67
2018-12-17T22:03:05.692Z,26.20
2018-12-17T22:05:32.427Z,29.70
2018-12-17T22:07:59.118Z,29.42
2018-12-17T22:10:28.594Z,26.45
2018-12-17T22:12:55.663Z,27.10
2018-12-17T22:15:22.508Z,28.30
2018-12-17T22:17:49.534Z,28.40
2018-12-17T22:20:16.588Z,29.42
2018-12-17T22:22:43.435Z,27.25
2018-12-17T22:25:10.775Z,42.43
2018-12-17T22:27:37.620Z,44.33
2018-12-17T22:30:05.389Z,27.13
2018-12-17T22:32:32.335Z,28.20
2018-12-17T22:34:59.274Z,27.22
2018-12-17T22:37:26.013Z,24.37
2018-12-17T22:39:52.858Z,30.50
2018-12-17T22:42:19.617Z,26.25
2018-12-17T22:44:46.462Z,26.90
2018-12-17T22:47:13.389Z,26.35
2018-12-17T22:49:40.438Z,25.70
2018-12-17T22:52:07.380Z,19.82
2018-12-17T22:54:34.225Z,22.48
2018-12-17T22:57:01.069Z,26.90
2018-12-17T22:59:27.909Z,27.30
2018-12-17T23:01:54.850Z,27.75
2018-12-17T23:04:21.802Z,28.32
2018-12-17T23:06:49.250Z,27.75
2018-12-17T23:09:15.897Z,29.82
2018-12-17T23:11:54.612Z,24.72
2018-12-17T23:14:27.498Z,29.10
2018-12-17T23:17:00.281Z,28.42
2018-12-17T23:19:26.756Z,26.55
2018-12-17T23:21:53.533Z,26.55
2018-12-17T23:24:20.219Z,26.75
2018-12-17T23:26:46.900Z,28.90
2018-12-17T23:29:13.559Z,23.85
2018-12-17T23:31:40.321Z,28.77
2018-12-17T23:34:06.987Z,27.80
2018-12-17T23:36:33.658Z,27.65
2018-12-17T23:39:00.347Z,26.90
2018-12-17T23:41:27.015Z,24.43
2018-12-17T23:43:53.689Z,24.95
2018-12-17T23:46:20.368Z,24.80
2018-12-17T23:48:47.073Z,23.05
2018-12-17T23:51:13.758Z,25.88
2018-12-17T23:53:40.487Z,24.20
2018-12-17T23:56:07.232Z,26.85
2018-12-17T23:58:33.913Z,27.48
